sensor_id;sensor_type;location;lat;lon;timestamp;P1;durP1;ratioP1;P2;durP2;ratioP2
68275;SDS011;55106;51.438;-0.098;2022-09-12T00:00:09;25.80;;;13.30;;
68275;SDS011;55106;51.438;-0.098;2022-09-12T00:02:35;24.20;;;13.20;;
68275;SDS011;55106;51.438;-0.098;2022-09-12T00:05:00;27.03;;;13.83;;
68275;SDS011;55106;51.438;-0.098;2022-09-12T00:07:26;27.03;;;13.00;;
68275;SDS011;55106;51.438;-0.098;2022-09-12T00:09:51;25.43;;;13.67;;
68275;SDS011;55106;51.438;-0.098;2022-09-12T00:12:16;26.08;;;13.23;;
68275;SDS011;55106;51.438;-0.098;2022-09-12T00:14:42;24.97;;;12.50;;
68275;SDS011;55106;51.438;-0.098;2022-09-12T00:17:07;24.37;;;12.17;;
68275;SDS011;55106;51.438;-0.098;2022-09-12T00:19:33;22.60;;;12.48;;
68275;SDS011;55106;51.438;-0.098;2022-09-12T00:21:59;24.60;;;12.90;;
68275;SDS011;55106;51.438;-0.098;2022-09-12T00:24:24;21.80;;;11.67;;
68275;SDS011;55106;51.438;-0.098;2022-09-12T00:26:49;22.57;;;11.40;;
68275;SDS011;55106;51.438;-0.098;2022-09-12T00:29:19;21.60;;;11.43;;
68275;SDS011;55106;51.438;-0.098;2022-09-12T00:31:45;19.88;;;11.57;;
68275;SDS011;55106;51.438;-0.098;2022-09-12T00:34:11;22.20;;;12.32;;
68275;SDS011;55106;51.438;-0.098;2022-09-12T00:36:37;23.58;;;12.35;;
68275;SDS011;55106;51.438;-0.098;2022-09-12T00:39:03;24.40;;;12.27;;
68275;SDS011;55106;51.438;-0.098;2022-09-12T00:41:30;25.13;;;12.25;;
68275;SDS011;55106;51.438;-0.098;2022-09-12T00:43:59;24.87;;;12.00;;
68275;SDS011;55106;51.438;-0.098;2022-09-12T00:49:15;20.05;;;11.55;;
68275;SDS011;55106;51.438;-0.098;2022-09-12T00:52:11;18.27;;;10.75;;
68275;SDS011;55106;51.438;-0.098;2022-09-12T00:57:28;18.93;;;10.67;;
68275;SDS011;55106;51.438;-0.098;2022-09-12T00:59:58;18.70;;;10.20;;
68275;SDS011;55106;51.438;-0.098;2022-09-12T01:02:29;18.60;;;10.88;;
68275;SDS011;55106;51.438;-0.098;2022-09-12T01:04:56;16.83;;;9.98;;
68275;SDS011;55106;51.438;-0.098;2022-09-12T01:07:21;18.50;;;10.07;;
68275;SDS011;55106;51.438;-0.098;2022-09-12T01:09:47;20.27;;;11.25;;
68275;SDS011;55106;51.438;-0.098;2022-09-12T01:12:14;18.97;;;10.27;;
68275;SDS011;55106;51.438;-0.098;2022-09-12T01:14:40;17.42;;;10.23;;
68275;SDS011;55106;51.438;-0.098;2022-09-12T01:17:06;19.13;;;11.20;;
68275;SDS011;55106;51.438;-0.098;2022-09-12T01:22:25;17.40;;;10.23;;
68275;SDS011;55106;51.438;-0.098;2022-09-12T01:25:23;18.67;;;9.83;;
68275;SDS011;55106;51.438;-0.098;2022-09-12T01:44:53;14.25;;;8.95;;
68275;SDS011;55106;51.438;-0.098;2022-09-12T01:47:46;14.07;;;8.65;;
68275;SDS011;55106;51.438;-0.098;2022-09-12T01:50:14;16.35;;;8.48;;
68275;SDS011;55106;51.438;-0.098;2022-09-12T01:52:48;12.93;;;8.43;;
68275;SDS011;55106;51.438;-0.098;2022-09-12T01:58:04;12.40;;;7.72;;
68275;SDS011;55106;51.438;-0.098;2022-09-12T02:00:36;12.98;;;7.97;;
68275;SDS011;55106;51.438;-0.098;2022-09-12T02:03:08;12.80;;;7.35;;
68275;SDS011;55106;51.438;-0.098;2022-09-12T02:05:39;12.37;;;7.67;;
68275;SDS011;55106;51.438;-0.098;2022-09-12T02:08:15;13.43;;;7.07;;
68275;SDS011;55106;51.438;-0.098;2022-09-12T02:11:29;13.27;;;7.30;;
68275;SDS011;55106;51.438;-0.098;2022-09-12T02:16:41;13.60;;;8.07;;
68275;SDS011;55106;51.438;-0.098;2022-09-12T02:21:43;15.00;;;7.60;;
68275;SDS011;55106;51.438;-0.098;2022-09-12T02:24:13;11.98;;;7.70;;
68275;SDS011;55106;51.438;-0.098;2022-09-12T02:26:46;13.00;;;7.10;;
68275;SDS011;55106;51.438;-0.098;2022-09-12T02:29:18;13.77;;;7.47;;
68275;SDS011;55106;51.438;-0.098;2022-09-12T02:31:56;12.27;;;7.20;;
68275;SDS011;55106;51.438;-0.098;2022-09-12T02:34:40;13.43;;;7.03;;
68275;SDS011;55106;51.438;-0.098;2022-09-12T02:37:22;12.03;;;7.13;;
68275;SDS011;55106;51.438;-0.098;2022-09-12T02:39:56;11.93;;;7.43;;
68275;SDS011;55106;51.438;-0.098;2022-09-12T02:42:22;12.98;;;7.20;;
68275;SDS011;55106;51.438;-0.098;2022-09-12T02:44:49;14.52;;;7.25;;
68275;SDS011;55106;51.438;-0.098;2022-09-12T02:47:21;13.02;;;6.57;;
68275;SDS011;55106;51.438;-0.098;2022-09-12T02:49:53;11.77;;;7.10;;
68275;SDS011;55106;51.438;-0.098;2022-09-12T02:52:19;11.20;;;6.40;;
68275;SDS011;55106;51.438;-0.098;2022-09-12T02:54:45;11.80;;;6.68;;
68275;SDS011;55106;51.438;-0.098;2022-09-12T02:57:15;10.68;;;5.93;;
68275;SDS011;55106;51.438;-0.098;2022-09-12T02:59:42;11.13;;;5.97;;
68275;SDS011;55106;51.438;-0.098;2022-09-12T03:23:17;10.40;;;5.53;;
68275;SDS011;55106;51.438;-0.098;2022-09-12T03:26:02;8.85;;;5.18;;
68275;SDS011;55106;51.438;-0.098;2022-09-12T03:28:47;9.47;;;5.67;;
68275;SDS011;55106;51.438;-0.098;2022-09-12T03:31:14;8.68;;;5.10;;
68275;SDS011;55106;51.438;-0.098;2022-09-12T03:33:41;10.68;;;5.35;;
68275;SDS011;55106;51.438;-0.098;2022-09-12T03:36:26;14.52;;;5.82;;
68275;SDS011;55106;51.438;-0.098;2022-09-12T03:38:53;10.40;;;5.87;;
68275;SDS011;55106;51.438;-0.098;2022-09-12T03:41:19;10.02;;;5.13;;
68275;SDS011;55106;51.438;-0.098;2022-09-12T03:43:45;8.70;;;5.60;;
68275;SDS011;55106;51.438;-0.098;2022-09-12T03:46:11;11.33;;;5.97;;
68275;SDS011;55106;51.438;-0.098;2022-09-12T03:48:37;11.02;;;5.82;;
68275;SDS011;55106;51.438;-0.098;2022-09-12T03:51:04;13.07;;;5.30;;
68275;SDS011;55106;51.438;-0.098;2022-09-12T03:53:31;11.77;;;5.40;;
68275;SDS011;55106;51.438;-0.098;2022-09-12T03:55:57;9.73;;;6.10;;
68275;SDS011;55106;51.438;-0.098;2022-09-12T03:58:23;10.50;;;5.57;;
68275;SDS011;55106;51.438;-0.098;2022-09-12T04:00:49;10.63;;;5.57;;
68275;SDS011;55106;51.438;-0.098;2022-09-12T04:03:15;10.67;;;5.53;;
68275;SDS011;55106;51.438;-0.098;2022-09-12T04:05:40;9.85;;;5.45;;
68275;SDS011;55106;51.438;-0.098;2022-09-12T04:08:06;10.47;;;5.93;;
68275;SDS011;55106;51.438;-0.098;2022-09-12T04:10:31;11.37;;;5.87;;
68275;SDS011;55106;51.438;-0.098;2022-09-12T04:12:57;11.97;;;6.27;;
68275;SDS011;55106;51.438;-0.098;2022-09-12T04:15:22;10.10;;;5.78;;
68275;SDS011;55106;51.438;-0.098;2022-09-12T04:17:48;9.33;;;5.77;;
68275;SDS011;55106;51.438;-0.098;2022-09-12T04:20:13;10.53;;;6.40;;
68275;SDS011;55106;51.438;-0.098;2022-09-12T04:22:39;10.82;;;5.68;;
68275;SDS011;55106;51.438;-0.098;2022-09-12T04:25:04;12.57;;;6.10;;
68275;SDS011;55106;51.438;-0.098;2022-09-12T04:27:31;9.95;;;5.90;;
68275;SDS011;55106;51.438;-0.098;2022-09-12T04:29:56;10.83;;;6.10;;
68275;SDS011;55106;51.438;-0.098;2022-09-12T04:32:22;9.80;;;5.57;;
68275;SDS011;55106;51.438;-0.098;2022-09-12T04:34:47;11.20;;;5.38;;
68275;SDS011;55106;51.438;-0.098;2022-09-12T04:37:13;11.53;;;5.83;;
68275;SDS011;55106;51.438;-0.098;2022-09-12T04:39:38;10.77;;;5.33;;
68275;SDS011;55106;51.438;-0.098;2022-09-12T04:42:05;12.63;;;5.65;;
68275;SDS011;55106;51.438;-0.098;2022-09-12T04:44:30;11.67;;;5.60;;
68275;SDS011;55106;51.438;-0.098;2022-09-12T04:46:56;10.45;;;5.75;;
68275;SDS011;55106;51.438;-0.098;2022-09-12T04:49:21;10.03;;;5.80;;
68275;SDS011;55106;51.438;-0.098;2022-09-12T04:51:47;10.30;;;5.55;;
68275;SDS011;55106;51.438;-0.098;2022-09-12T04:54:17;8.27;;;5.70;;
68275;SDS011;55106;51.438;-0.098;2022-09-12T04:56:46;11.00;;;5.95;;
68275;SDS011;55106;51.438;-0.098;2022-09-12T04:59:13;10.82;;;5.95;;
68275;SDS011;55106;51.438;-0.098;2022-09-12T05:01:40;10.48;;;5.70;;
68275;SDS011;55106;51.438;-0.098;2022-09-12T05:04:06;9.97;;;6.00;;
68275;SDS011;55106;51.438;-0.098;2022-09-12T05:06:34;10.77;;;5.63;;
68275;SDS011;55106;51.438;-0.098;2022-09-12T05:09:01;9.68;;;5.78;;
68275;SDS011;55106;51.438;-0.098;2022-09-12T05:11:29;10.80;;;6.38;;
68275;SDS011;55106;51.438;-0.098;2022-09-12T05:13:56;9.25;;;5.80;;
68275;SDS011;55106;51.438;-0.098;2022-09-12T05:16:22;10.20;;;6.17;;
68275;SDS011;55106;51.438;-0.098;2022-09-12T05:18:48;11.82;;;5.90;;
68275;SDS011;55106;51.438;-0.098;2022-09-12T05:21:16;10.97;;;6.00;;
68275;SDS011;55106;51.438;-0.098;2022-09-12T05:23:43;10.32;;;6.07;;
68275;SDS011;55106;51.438;-0.098;2022-09-12T05:26:11;11.88;;;5.90;;
68275;SDS011;55106;51.438;-0.098;2022-09-12T05:28:40;11.02;;;6.78;;
68275;SDS011;55106;51.438;-0.098;2022-09-12T05:33:37;10.73;;;5.70;;
68275;SDS011;55106;51.438;-0.098;2022-09-12T05:36:04;12.20;;;5.85;;
68275;SDS011;55106;51.438;-0.098;2022-09-12T05:38:33;11.05;;;5.88;;
68275;SDS011;55106;51.438;-0.098;2022-09-12T05:41:03;12.65;;;6.13;;
68275;SDS011;55106;51.438;-0.098;2022-09-12T05:43:30;9.60;;;5.50;;
68275;SDS011;55106;51.438;-0.098;2022-09-12T05:46:00;11.35;;;5.40;;
68275;SDS011;55106;51.438;-0.098;2022-09-12T05:48:28;12.68;;;5.90;;
68275;SDS011;55106;51.438;-0.098;2022-09-12T05:51:00;9.50;;;5.30;;
68275;SDS011;55106;51.438;-0.098;2022-09-12T05:53:32;10.10;;;5.57;;
68275;SDS011;55106;51.438;-0.098;2022-09-12T05:56:08;11.50;;;5.43;;
68275;SDS011;55106;51.438;-0.098;2022-09-12T05:58:40;12.35;;;5.60;;
68275;SDS011;55106;51.438;-0.098;2022-09-12T06:01:08;12.97;;;5.80;;
68275;SDS011;55106;51.438;-0.098;2022-09-12T06:03:40;8.13;;;5.07;;
68275;SDS011;55106;51.438;-0.098;2022-09-12T06:06:07;8.70;;;4.80;;
68275;SDS011;55106;51.438;-0.098;2022-09-12T06:08:33;10.35;;;5.10;;
68275;SDS011;55106;51.438;-0.098;2022-09-12T06:11:01;8.37;;;5.13;;
68275;SDS011;55106;51.438;-0.098;2022-09-12T06:13:27;9.73;;;4.85;;
68275;SDS011;55106;51.438;-0.098;2022-09-12T06:15:55;9.02;;;4.70;;
68275;SDS011;55106;51.438;-0.098;2022-09-12T06:18:27;8.40;;;4.78;;
68275;SDS011;55106;51.438;-0.098;2022-09-12T06:20:52;11.67;;;5.13;;
68275;SDS011;55106;51.438;-0.098;2022-09-12T06:23:17;10.97;;;4.90;;
68275;SDS011;55106;51.438;-0.098;2022-09-12T06:25:46;9.97;;;4.80;;
68275;SDS011;55106;51.438;-0.098;2022-09-12T06:28:14;7.80;;;4.30;;
68275;SDS011;55106;51.438;-0.098;2022-09-12T06:30:40;10.45;;;4.82;;
68275;SDS011;55106;51.438;-0.098;2022-09-12T06:33:06;9.37;;;4.20;;
68275;SDS011;55106;51.438;-0.098;2022-09-12T06:35:34;11.03;;;4.30;;
68275;SDS011;55106;51.438;-0.098;2022-09-12T06:38:00;7.70;;;3.65;;
68275;SDS011;55106;51.438;-0.098;2022-09-12T06:40:26;8.17;;;3.90;;
68275;SDS011;55106;51.438;-0.098;2022-09-12T06:42:52;7.55;;;4.28;;
68275;SDS011;55106;51.438;-0.098;2022-09-12T06:45:17;12.10;;;3.67;;
68275;SDS011;55106;51.438;-0.098;2022-09-12T06:47:44;8.45;;;3.83;;
68275;SDS011;55106;51.438;-0.098;2022-09-12T06:50:09;9.40;;;3.83;;
68275;SDS011;55106;51.438;-0.098;2022-09-12T06:52:35;7.43;;;3.60;;
68275;SDS011;55106;51.438;-0.098;2022-09-12T06:55:00;9.50;;;3.53;;
68275;SDS011;55106;51.438;-0.098;2022-09-12T06:57:26;9.02;;;3.65;;
68275;SDS011;55106;51.438;-0.098;2022-09-12T06:59:54;7.07;;;3.57;;
68275;SDS011;55106;51.438;-0.098;2022-09-12T07:02:20;8.23;;;3.70;;
68275;SDS011;55106;51.438;-0.098;2022-09-12T07:04:45;8.87;;;3.90;;
68275;SDS011;55106;51.438;-0.098;2022-09-12T07:07:11;6.70;;;3.50;;
68275;SDS011;55106;51.438;-0.098;2022-09-12T07:09:36;7.63;;;3.50;;
68275;SDS011;55106;51.438;-0.098;2022-09-12T07:12:02;6.90;;;3.17;;
68275;SDS011;55106;51.438;-0.098;2022-09-12T07:14:28;7.57;;;4.00;;
68275;SDS011;55106;51.438;-0.098;2022-09-12T07:16:54;8.13;;;3.53;;
68275;SDS011;55106;51.438;-0.098;2022-09-12T07:19:20;9.33;;;3.73;;
68275;SDS011;55106;51.438;-0.098;2022-09-12T07:21:45;8.40;;;3.27;;
68275;SDS011;55106;51.438;-0.098;2022-09-12T07:24:11;8.80;;;3.47;;
68275;SDS011;55106;51.438;-0.098;2022-09-12T07:26:36;8.27;;;2.88;;
68275;SDS011;55106;51.438;-0.098;2022-09-12T07:29:03;7.57;;;2.97;;
68275;SDS011;55106;51.438;-0.098;2022-09-12T07:31:29;7.40;;;3.10;;
68275;SDS011;55106;51.438;-0.098;2022-09-12T07:33:54;7.87;;;3.00;;
68275;SDS011;55106;51.438;-0.098;2022-09-12T07:36:21;8.07;;;2.90;;
68275;SDS011;55106;51.438;-0.098;2022-09-12T07:38:52;7.93;;;3.10;;
68275;SDS011;55106;51.438;-0.098;2022-09-12T07:41:20;8.98;;;3.00;;
68275;SDS011;55106;51.438;-0.098;2022-09-12T07:43:49;7.93;;;3.15;;
68275;SDS011;55106;51.438;-0.098;2022-09-12T07:46:16;9.37;;;3.13;;
68275;SDS011;55106;51.438;-0.098;2022-09-12T07:48:41;7.60;;;2.70;;
68275;SDS011;55106;51.438;-0.098;2022-09-12T07:51:07;9.63;;;3.40;;
68275;SDS011;55106;51.438;-0.098;2022-09-12T07:53:35;6.20;;;2.85;;
68275;SDS011;55106;51.438;-0.098;2022-09-12T07:56:02;7.27;;;2.90;;
68275;SDS011;55106;51.438;-0.098;2022-09-12T07:58:29;7.05;;;2.60;;
68275;SDS011;55106;51.438;-0.098;2022-09-12T08:01:05;9.23;;;2.63;;
68275;SDS011;55106;51.438;-0.098;2022-09-12T08:03:38;6.47;;;2.75;;
68275;SDS011;55106;51.438;-0.098;2022-09-12T08:06:09;8.40;;;2.92;;
68275;SDS011;55106;51.438;-0.098;2022-09-12T08:08:40;9.23;;;2.70;;
68275;SDS011;55106;51.438;-0.098;2022-09-12T08:11:07;7.35;;;2.65;;
68275;SDS011;55106;51.438;-0.098;2022-09-12T08:13:34;7.20;;;2.40;;
68275;SDS011;55106;51.438;-0.098;2022-09-12T08:16:02;6.32;;;2.90;;
68275;SDS011;55106;51.438;-0.098;2022-09-12T08:18:29;8.30;;;2.67;;
68275;SDS011;55106;51.438;-0.098;2022-09-12T08:21:00;6.85;;;2.70;;
68275;SDS011;55106;51.438;-0.098;2022-09-12T08:23:28;6.97;;;2.70;;
68275;SDS011;55106;51.438;-0.098;2022-09-12T08:25:54;8.93;;;2.90;;
68275;SDS011;55106;51.438;-0.098;2022-09-12T08:28:20;7.18;;;2.90;;
68275;SDS011;55106;51.438;-0.098;2022-09-12T08:30:45;8.13;;;2.80;;
68275;SDS011;55106;51.438;-0.098;2022-09-12T08:33:11;7.65;;;2.53;;
68275;SDS011;55106;51.438;-0.098;2022-09-12T08:35:36;6.93;;;2.50;;
68275;SDS011;55106;51.438;-0.098;2022-09-12T08:38:02;5.53;;;2.70;;
68275;SDS011;55106;51.438;-0.098;2022-09-12T08:40:27;5.70;;;2.30;;
68275;SDS011;55106;51.438;-0.098;2022-09-12T08:43:03;6.43;;;2.20;;
68275;SDS011;55106;51.438;-0.098;2022-09-12T08:45:42;6.82;;;2.40;;
68275;SDS011;55106;51.438;-0.098;2022-09-12T08:48:18;6.88;;;2.00;;
68275;SDS011;55106;51.438;-0.098;2022-09-12T08:50:44;6.40;;;2.20;;
68275;SDS011;55106;51.438;-0.098;2022-09-12T08:53:15;8.98;;;2.50;;
68275;SDS011;55106;51.438;-0.098;2022-09-12T08:55:58;8.30;;;2.47;;
68275;SDS011;55106;51.438;-0.098;2022-09-12T08:58:25;6.45;;;2.22;;
68275;SDS011;55106;51.438;-0.098;2022-09-12T09:06:56;6.25;;;1.98;;
68275;SDS011;55106;51.438;-0.098;2022-09-12T09:10:02;5.38;;;1.75;;
68275;SDS011;55106;51.438;-0.098;2022-09-12T09:18:03;5.75;;;1.70;;
68275;SDS011;55106;51.438;-0.098;2022-09-12T09:20:34;6.32;;;1.90;;
68275;SDS011;55106;51.438;-0.098;2022-09-12T09:23:07;6.53;;;1.90;;
68275;SDS011;55106;51.438;-0.098;2022-09-12T09:28:53;7.03;;;1.80;;
68275;SDS011;55106;51.438;-0.098;2022-09-12T09:31:21;6.07;;;1.50;;
68275;SDS011;55106;51.438;-0.098;2022-09-12T09:33:48;6.47;;;1.90;;
68275;SDS011;55106;51.438;-0.098;2022-09-12T09:39:26;5.60;;;1.77;;
68275;SDS011;55106;51.438;-0.098;2022-09-12T09:42:13;6.50;;;1.60;;
68275;SDS011;55106;51.438;-0.098;2022-09-12T09:44:55;7.28;;;1.80;;
68275;SDS011;55106;51.438;-0.098;2022-09-12T09:47:23;6.85;;;2.10;;
68275;SDS011;55106;51.438;-0.098;2022-09-12T09:49:48;6.43;;;1.80;;
68275;SDS011;55106;51.438;-0.098;2022-09-12T09:52:15;5.20;;;2.20;;
68275;SDS011;55106;51.438;-0.098;2022-09-12T09:54:48;8.55;;;2.30;;
68275;SDS011;55106;51.438;-0.098;2022-09-12T10:00:18;6.65;;;2.38;;
68275;SDS011;55106;51.438;-0.098;2022-09-12T10:05:34;6.23;;;2.23;;
68275;SDS011;55106;51.438;-0.098;2022-09-12T10:08:18;8.02;;;2.13;;
68275;SDS011;55106;51.438;-0.098;2022-09-12T10:11:05;4.82;;;1.80;;
68275;SDS011;55106;51.438;-0.098;2022-09-12T10:18:48;8.00;;;2.27;;
68275;SDS011;55106;51.438;-0.098;2022-09-12T10:21:30;6.75;;;1.95;;
68275;SDS011;55106;51.438;-0.098;2022-09-12T10:26:51;7.97;;;2.50;;
68275;SDS011;55106;51.438;-0.098;2022-09-12T10:29:29;5.88;;;2.00;;
68275;SDS011;55106;51.438;-0.098;2022-09-12T10:31:58;6.23;;;1.97;;
68275;SDS011;55106;51.438;-0.098;2022-09-12T10:34:27;7.13;;;1.98;;
68275;SDS011;55106;51.438;-0.098;2022-09-12T10:37:00;6.15;;;1.80;;
68275;SDS011;55106;51.438;-0.098;2022-09-12T10:39:29;6.18;;;2.00;;
68275;SDS011;55106;51.438;-0.098;2022-09-12T10:41:55;5.22;;;1.80;;
68275;SDS011;55106;51.438;-0.098;2022-09-12T10:44:25;5.27;;;1.97;;
68275;SDS011;55106;51.438;-0.098;2022-09-12T10:46:53;5.97;;;1.70;;
68275;SDS011;55106;51.438;-0.098;2022-09-12T10:49:29;4.68;;;1.30;;
68275;SDS011;55106;51.438;-0.098;2022-09-12T10:51:56;5.53;;;1.55;;
68275;SDS011;55106;51.438;-0.098;2022-09-12T10:54:40;6.60;;;1.75;;
68275;SDS011;55106;51.438;-0.098;2022-09-12T11:02:29;5.70;;;1.92;;
68275;SDS011;55106;51.438;-0.098;2022-09-12T11:07:41;5.23;;;1.53;;
68275;SDS011;55106;51.438;-0.098;2022-09-12T11:10:30;4.90;;;1.60;;
68275;SDS011;55106;51.438;-0.098;2022-09-12T11:25:02;5.50;;;1.55;;
68275;SDS011;55106;51.438;-0.098;2022-09-12T11:30:20;6.25;;;1.30;;
68275;SDS011;55106;51.438;-0.098;2022-09-12T11:35:50;4.25;;;1.38;;
68275;SDS011;55106;51.438;-0.098;2022-09-12T11:38:28;5.20;;;1.50;;
68275;SDS011;55106;51.438;-0.098;2022-09-12T11:41:00;5.30;;;1.67;;
68275;SDS011;55106;51.438;-0.098;2022-09-12T11:52:40;7.50;;;1.75;;
68275;SDS011;55106;51.438;-0.098;2022-09-12T12:05:39;5.75;;;1.60;;
68275;SDS011;55106;51.438;-0.098;2022-09-12T12:08:11;6.05;;;1.90;;
68275;SDS011;55106;51.438;-0.098;2022-09-12T12:13:33;6.50;;;2.83;;
68275;SDS011;55106;51.438;-0.098;2022-09-12T12:19:26;6.72;;;2.03;;
68275;SDS011;55106;51.438;-0.098;2022-09-12T12:21:42;5.47;;;1.60;;
68275;SDS011;55106;51.438;-0.098;2022-09-12T12:24:22;5.63;;;1.50;;
68275;SDS011;55106;51.438;-0.098;2022-09-12T12:34:31;7.88;;;1.90;;
68275;SDS011;55106;51.438;-0.098;2022-09-12T12:50:05;6.57;;;1.80;;
68275;SDS011;55106;51.438;-0.098;2022-09-12T12:52:44;7.68;;;1.80;;
68275;SDS011;55106;51.438;-0.098;2022-09-12T12:55:15;4.35;;;1.60;;
68275;SDS011;55106;51.438;-0.098;2022-09-12T12:57:50;5.47;;;1.70;;
68275;SDS011;55106;51.438;-0.098;2022-09-12T13:00:25;5.15;;;1.90;;
68275;SDS011;55106;51.438;-0.098;2022-09-12T13:05:37;7.72;;;2.25;;
68275;SDS011;55106;51.438;-0.098;2022-09-12T13:08:08;5.43;;;1.90;;
68275;SDS011;55106;51.438;-0.098;2022-09-12T13:16:10;4.50;;;1.75;;
68275;SDS011;55106;51.438;-0.098;2022-09-12T13:18:52;5.07;;;1.27;;
68275;SDS011;55106;51.438;-0.098;2022-09-12T13:21:18;5.97;;;1.65;;
68275;SDS011;55106;51.438;-0.098;2022-09-12T13:24:31;5.50;;;1.60;;
68275;SDS011;55106;51.438;-0.098;2022-09-12T13:26:41;4.65;;;1.40;;
68275;SDS011;55106;51.438;-0.098;2022-09-12T13:29:18;8.48;;;1.73;;
68275;SDS011;55106;51.438;-0.098;2022-09-12T13:34:21;5.28;;;1.60;;
68275;SDS011;55106;51.438;-0.098;2022-09-12T13:45:08;5.32;;;1.48;;
68275;SDS011;55106;51.438;-0.098;2022-09-12T13:47:42;5.05;;;1.40;;
68275;SDS011;55106;51.438;-0.098;2022-09-12T13:50:14;5.00;;;1.50;;
68275;SDS011;55106;51.438;-0.098;2022-09-12T13:52:44;5.45;;;1.40;;
68275;SDS011;55106;51.438;-0.098;2022-09-12T13:55:26;5.90;;;1.70;;
68275;SDS011;55106;51.438;-0.098;2022-09-12T13:58:05;5.90;;;1.70;;
68275;SDS011;55106;51.438;-0.098;2022-09-12T14:00:40;6.90;;;2.13;;
68275;SDS011;55106;51.438;-0.098;2022-09-12T14:06:22;4.10;;;1.30;;
68275;SDS011;55106;51.438;-0.098;2022-09-12T14:08:51;4.70;;;1.50;;
68275;SDS011;55106;51.438;-0.098;2022-09-12T14:11:25;4.93;;;1.50;;
68275;SDS011;55106;51.438;-0.098;2022-09-12T14:13:52;4.72;;;1.35;;
68275;SDS011;55106;51.438;-0.098;2022-09-12T14:16:20;7.07;;;1.80;;
68275;SDS011;55106;51.438;-0.098;2022-09-12T14:18:48;5.18;;;1.50;;
68275;SDS011;55106;51.438;-0.098;2022-09-12T14:23:44;5.82;;;1.55;;
68275;SDS011;55106;51.438;-0.098;2022-09-12T14:26:13;7.30;;;1.80;;
68275;SDS011;55106;51.438;-0.098;2022-09-12T14:28:42;6.20;;;1.60;;
68275;SDS011;55106;51.438;-0.098;2022-09-12T14:36:24;5.72;;;1.70;;
68275;SDS011;55106;51.438;-0.098;2022-09-12T14:38:55;4.40;;;1.40;;
68275;SDS011;55106;51.438;-0.098;2022-09-12T14:41:25;5.33;;;1.70;;
68275;SDS011;55106;51.438;-0.098;2022-09-12T14:43:53;6.60;;;1.60;;
68275;SDS011;55106;51.438;-0.098;2022-09-12T14:46:35;5.90;;;1.70;;
68275;SDS011;55106;51.438;-0.098;2022-09-12T14:49:06;6.57;;;1.80;;
68275;SDS011;55106;51.438;-0.098;2022-09-12T14:51:33;7.20;;;1.65;;
68275;SDS011;55106;51.438;-0.098;2022-09-12T14:54:33;4.50;;;1.50;;
68275;SDS011;55106;51.438;-0.098;2022-09-12T14:57:01;4.38;;;1.55;;
68275;SDS011;55106;51.438;-0.098;2022-09-12T14:59:49;5.30;;;1.58;;
68275;SDS011;55106;51.438;-0.098;2022-09-12T15:04:47;5.80;;;1.60;;
68275;SDS011;55106;51.438;-0.098;2022-09-12T15:07:27;5.53;;;1.40;;
68275;SDS011;55106;51.438;-0.098;2022-09-12T15:10:22;4.85;;;1.30;;
68275;SDS011;55106;51.438;-0.098;2022-09-12T15:15:40;5.57;;;1.30;;
68275;SDS011;55106;51.438;-0.098;2022-09-12T15:18:07;4.20;;;1.40;;
68275;SDS011;55106;51.438;-0.098;2022-09-12T15:20:34;6.20;;;1.50;;
68275;SDS011;55106;51.438;-0.098;2022-09-12T15:23:01;4.72;;;1.40;;
68275;SDS011;55106;51.438;-0.098;2022-09-12T15:25:26;4.95;;;1.70;;
68275;SDS011;55106;51.438;-0.098;2022-09-12T15:27:52;4.37;;;1.57;;
68275;SDS011;55106;51.438;-0.098;2022-09-12T15:30:19;5.38;;;1.48;;
68275;SDS011;55106;51.438;-0.098;2022-09-12T15:32:45;4.40;;;1.50;;
68275;SDS011;55106;51.438;-0.098;2022-09-12T15:35:17;7.20;;;1.63;;
68275;SDS011;55106;51.438;-0.098;2022-09-12T15:37:47;5.28;;;1.52;;
68275;SDS011;55106;51.438;-0.098;2022-09-12T15:40:13;6.03;;;1.60;;
68275;SDS011;55106;51.438;-0.098;2022-09-12T15:42:39;4.40;;;1.57;;
68275;SDS011;55106;51.438;-0.098;2022-09-12T15:47:44;5.28;;;1.70;;
68275;SDS011;55106;51.438;-0.098;2022-09-12T15:50:10;6.00;;;1.70;;
68275;SDS011;55106;51.438;-0.098;2022-09-12T15:52:35;4.50;;;1.30;;
68275;SDS011;55106;51.438;-0.098;2022-09-12T15:55:03;5.78;;;1.60;;
68275;SDS011;55106;51.438;-0.098;2022-09-12T15:57:30;7.13;;;1.50;;
68275;SDS011;55106;51.438;-0.098;2022-09-12T15:59:55;7.10;;;1.90;;
68275;SDS011;55106;51.438;-0.098;2022-09-12T16:02:20;4.87;;;1.60;;
68275;SDS011;55106;51.438;-0.098;2022-09-12T16:04:46;4.90;;;1.70;;
68275;SDS011;55106;51.438;-0.098;2022-09-12T16:07:12;5.18;;;1.77;;
68275;SDS011;55106;51.438;-0.098;2022-09-12T16:09:37;5.03;;;1.63;;
68275;SDS011;55106;51.438;-0.098;2022-09-12T16:12:03;5.47;;;1.60;;
68275;SDS011;55106;51.438;-0.098;2022-09-12T16:14:28;6.50;;;1.60;;
68275;SDS011;55106;51.438;-0.098;2022-09-12T16:16:54;6.23;;;1.80;;
68275;SDS011;55106;51.438;-0.098;2022-09-12T16:19:19;4.67;;;1.50;;
68275;SDS011;55106;51.438;-0.098;2022-09-12T16:21:45;5.38;;;1.50;;
68275;SDS011;55106;51.438;-0.098;2022-09-12T16:24:10;6.53;;;1.50;;
68275;SDS011;55106;51.438;-0.098;2022-09-12T16:26:36;6.33;;;1.60;;
68275;SDS011;55106;51.438;-0.098;2022-09-12T16:29:01;5.38;;;1.40;;
68275;SDS011;55106;51.438;-0.098;2022-09-12T16:31:27;5.07;;;1.50;;
68275;SDS011;55106;51.438;-0.098;2022-09-12T16:33:53;7.03;;;1.63;;
68275;SDS011;55106;51.438;-0.098;2022-09-12T16:36:19;4.20;;;1.30;;
68275;SDS011;55106;51.438;-0.098;2022-09-12T16:38:47;4.53;;;1.42;;
68275;SDS011;55106;51.438;-0.098;2022-09-12T16:41:14;4.45;;;1.35;;
68275;SDS011;55106;51.438;-0.098;2022-09-12T16:43:40;5.80;;;1.50;;
68275;SDS011;55106;51.438;-0.098;2022-09-12T16:46:08;4.77;;;1.57;;
68275;SDS011;55106;51.438;-0.098;2022-09-12T16:48:35;5.05;;;1.58;;
68275;SDS011;55106;51.438;-0.098;2022-09-12T16:51:02;6.50;;;1.40;;
68275;SDS011;55106;51.438;-0.098;2022-09-12T16:53:30;6.80;;;1.65;;
68275;SDS011;55106;51.438;-0.098;2022-09-12T16:55:56;5.63;;;1.50;;
68275;SDS011;55106;51.438;-0.098;2022-09-12T16:58:21;6.50;;;1.90;;
68275;SDS011;55106;51.438;-0.098;2022-09-12T17:00:47;7.80;;;1.83;;
68275;SDS011;55106;51.438;-0.098;2022-09-12T17:03:12;5.13;;;1.43;;
68275;SDS011;55106;51.438;-0.098;2022-09-12T17:05:38;4.80;;;1.70;;
68275;SDS011;55106;51.438;-0.098;2022-09-12T17:08:03;5.33;;;1.50;;
68275;SDS011;55106;51.438;-0.098;2022-09-12T17:10:29;6.27;;;1.70;;
68275;SDS011;55106;51.438;-0.098;2022-09-12T17:12:55;4.78;;;1.55;;
68275;SDS011;55106;51.438;-0.098;2022-09-12T17:15:21;4.18;;;1.60;;
68275;SDS011;55106;51.438;-0.098;2022-09-12T17:17:46;7.37;;;1.70;;
68275;SDS011;55106;51.438;-0.098;2022-09-12T17:20:12;6.10;;;1.70;;
68275;SDS011;55106;51.438;-0.098;2022-09-12T17:22:39;5.63;;;1.80;;
68275;SDS011;55106;51.438;-0.098;2022-09-12T17:25:04;5.70;;;1.70;;
68275;SDS011;55106;51.438;-0.098;2022-09-12T17:27:30;6.20;;;1.90;;
68275;SDS011;55106;51.438;-0.098;2022-09-12T17:29:56;7.57;;;1.97;;
68275;SDS011;55106;51.438;-0.098;2022-09-12T17:32:21;5.40;;;2.10;;
68275;SDS011;55106;51.438;-0.098;2022-09-12T17:34:46;5.10;;;1.90;;
68275;SDS011;55106;51.438;-0.098;2022-09-12T17:37:12;5.57;;;2.23;;
68275;SDS011;55106;51.438;-0.098;2022-09-12T17:39:38;6.30;;;1.80;;
68275;SDS011;55106;51.438;-0.098;2022-09-12T17:42:03;5.60;;;1.90;;
68275;SDS011;55106;51.438;-0.098;2022-09-12T17:44:32;7.05;;;2.10;;
68275;SDS011;55106;51.438;-0.098;2022-09-12T17:46:59;4.63;;;1.77;;
68275;SDS011;55106;51.438;-0.098;2022-09-12T17:49:25;6.53;;;1.87;;
68275;SDS011;55106;51.438;-0.098;2022-09-12T17:51:51;6.03;;;2.08;;
68275;SDS011;55106;51.438;-0.098;2022-09-12T17:54:17;6.17;;;1.90;;
68275;SDS011;55106;51.438;-0.098;2022-09-12T17:56:45;6.25;;;2.00;;
68275;SDS011;55106;51.438;-0.098;2022-09-12T17:59:14;6.60;;;2.00;;